sensor_id;sensor_type;location;lat;lon;timestamp;P1;durP1;ratioP1;P2;durP2;ratioP2
26163;SDS011;13914;48.178;11.716;2023-02-10T00:02:38;39.85;;;14.95;;
26163;SDS011;13914;48.178;11.716;2023-02-10T00:08:11;31.83;;;14.77;;
26163;SDS011;13914;48.178;11.716;2023-02-10T00:11:01;42.45;;;15.85;;
26163;SDS011;13914;48.178;11.716;2023-02-10T00:13:48;34.30;;;13.90;;
26163;SDS011;13914;48.178;11.716;2023-02-10T00:16:34;45.53;;;16.00;;
26163;SDS011;13914;48.178;11.716;2023-02-10T00:19:22;45.25;;;16.73;;
26163;SDS011;13914;48.178;11.716;2023-02-10T00:22:11;31.80;;;14.93;;
26163;SDS011;13914;48.178;11.716;2023-02-10T00:24:56;31.20;;;13.90;;
26163;SDS011;13914;48.178;11.716;2023-02-10T00:33:13;26.98;;;12.63;;
26163;SDS011;13914;48.178;11.716;2023-02-10T00:36:02;25.45;;;13.02;;
26163;SDS011;13914;48.178;11.716;2023-02-10T00:38:53;36.20;;;14.60;;
26163;SDS011;13914;48.178;11.716;2023-02-10T00:41:46;31.42;;;13.68;;
26163;SDS011;13914;48.178;11.716;2023-02-10T00:50:02;28.50;;;12.98;;
26163;SDS011;13914;48.178;11.716;2023-02-10T00:52:51;33.42;;;13.52;;
26163;SDS011;13914;48.178;11.716;2023-02-10T00:55:38;28.88;;;13.23;;
26163;SDS011;13914;48.178;11.716;2023-02-10T00:58:24;32.10;;;13.63;;
26163;SDS011;13914;48.178;11.716;2023-02-10T01:01:11;30.58;;;12.75;;
26163;SDS011;13914;48.178;11.716;2023-02-10T01:03:57;36.35;;;13.73;;
26163;SDS011;13914;48.178;11.716;2023-02-10T01:06:44;31.08;;;12.43;;
26163;SDS011;13914;48.178;11.716;2023-02-10T01:09:31;27.25;;;13.00;;
26163;SDS011;13914;48.178;11.716;2023-02-10T01:12:16;31.90;;;13.40;;
26163;SDS011;13914;48.178;11.716;2023-02-10T01:15:01;24.98;;;12.23;;
26163;SDS011;13914;48.178;11.716;2023-02-10T01:17:49;29.98;;;12.52;;
26163;SDS011;13914;48.178;11.716;2023-02-10T01:20:37;27.80;;;12.55;;
26163;SDS011;13914;48.178;11.716;2023-02-10T01:23:24;28.63;;;12.77;;
26163;SDS011;13914;48.178;11.716;2023-02-10T01:26:09;27.48;;;12.73;;
26163;SDS011;13914;48.178;11.716;2023-02-10T01:28:57;24.40;;;11.60;;
26163;SDS011;13914;48.178;11.716;2023-02-10T01:31:43;27.30;;;12.88;;
26163;SDS011;13914;48.178;11.716;2023-02-10T01:34:30;25.55;;;10.95;;
26163;SDS011;13914;48.178;11.716;2023-02-10T01:37:17;26.90;;;12.32;;
26163;SDS011;13914;48.178;11.716;2023-02-10T01:40:04;27.13;;;11.52;;
26163;SDS011;13914;48.178;11.716;2023-02-10T01:42:52;22.75;;;11.18;;
26163;SDS011;13914;48.178;11.716;2023-02-10T01:45:39;26.50;;;10.93;;
26163;SDS011;13914;48.178;11.716;2023-02-10T01:48:25;22.17;;;11.25;;
26163;SDS011;13914;48.178;11.716;2023-02-10T01:51:14;32.35;;;12.48;;
26163;SDS011;13914;48.178;11.716;2023-02-10T01:54:00;24.90;;;11.32;;
26163;SDS011;13914;48.178;11.716;2023-02-10T01:56:47;28.20;;;11.45;;
26163;SDS011;13914;48.178;11.716;2023-02-10T01:59:35;24.55;;;10.90;;
26163;SDS011;13914;48.178;11.716;2023-02-10T02:02:23;23.25;;;10.80;;
26163;SDS011;13914;48.178;11.716;2023-02-10T02:05:27;19.70;;;10.57;;
26163;SDS011;13914;48.178;11.716;2023-02-10T02:08:31;20.38;;;9.68;;
26163;SDS011;13914;48.178;11.716;2023-02-10T02:18:12;22.23;;;9.88;;
26163;SDS011;13914;48.178;11.716;2023-02-10T02:21:09;21.85;;;9.73;;
26163;SDS011;13914;48.178;11.716;2023-02-10T02:28:10;27.00;;;10.43;;
26163;SDS011;13914;48.178;11.716;2023-02-10T02:35:09;26.35;;;11.00;;
26163;SDS011;13914;48.178;11.716;2023-02-10T02:38:01;19.92;;;9.95;;
26163;SDS011;13914;48.178;11.716;2023-02-10T02:40:49;22.35;;;10.50;;
26163;SDS011;13914;48.178;11.716;2023-02-10T02:43:36;27.50;;;10.95;;
26163;SDS011;13914;48.178;11.716;2023-02-10T02:54:07;27.25;;;10.15;;
26163;SDS011;13914;48.178;11.716;2023-02-10T02:57:48;19.63;;;9.43;;
26163;SDS011;13914;48.178;11.716;2023-02-10T03:00:32;25.35;;;10.55;;
26163;SDS011;13914;48.178;11.716;2023-02-10T03:03:19;17.50;;;9.88;;
26163;SDS011;13914;48.178;11.716;2023-02-10T03:06:06;21.67;;;9.95;;
26163;SDS011;13914;48.178;11.716;2023-02-10T03:14:22;22.30;;;9.80;;
26163;SDS011;13914;48.178;11.716;2023-02-10T03:17:07;25.58;;;11.40;;
26163;SDS011;13914;48.178;11.716;2023-02-10T03:19:55;25.48;;;9.85;;
26163;SDS011;13914;48.178;11.716;2023-02-10T03:22:42;19.73;;;9.80;;
26163;SDS011;13914;48.178;11.716;2023-02-10T03:25:29;21.05;;;9.70;;
26163;SDS011;13914;48.178;11.716;2023-02-10T03:28:15;20.75;;;10.82;;
26163;SDS011;13914;48.178;11.716;2023-02-10T03:31:07;27.00;;;11.48;;
26163;SDS011;13914;48.178;11.716;2023-02-10T03:33:54;20.08;;;9.18;;
26163;SDS011;13914;48.178;11.716;2023-02-10T03:36:40;23.13;;;9.55;;
26163;SDS011;13914;48.178;11.716;2023-02-10T03:39:24;20.02;;;8.75;;
26163;SDS011;13914;48.178;11.716;2023-02-10T03:42:09;23.45;;;10.38;;
26163;SDS011;13914;48.178;11.716;2023-02-10T03:44:56;19.13;;;9.68;;
26163;SDS011;13914;48.178;11.716;2023-02-10T03:47:42;24.73;;;11.48;;
26163;SDS011;13914;48.178;11.716;2023-02-10T03:50:26;20.70;;;10.07;;
26163;SDS011;13914;48.178;11.716;2023-02-10T03:53:13;22.77;;;9.40;;
26163;SDS011;13914;48.178;11.716;2023-02-10T03:55:59;20.40;;;9.73;;
26163;SDS011;13914;48.178;11.716;2023-02-10T03:58:45;24.27;;;10.45;;
26163;SDS011;13914;48.178;11.716;2023-02-10T04:01:30;20.35;;;10.02;;
26163;SDS011;13914;48.178;11.716;2023-02-10T04:04:16;19.85;;;8.82;;
26163;SDS011;13914;48.178;11.716;2023-02-10T04:07:02;20.42;;;9.75;;
26163;SDS011;13914;48.178;11.716;2023-02-10T04:09:47;18.73;;;9.73;;
26163;SDS011;13914;48.178;11.716;2023-02-10T04:12:32;24.40;;;10.55;;
26163;SDS011;13914;48.178;11.716;2023-02-10T04:15:20;25.45;;;10.50;;
26163;SDS011;13914;48.178;11.716;2023-02-10T04:18:07;20.48;;;9.70;;
26163;SDS011;13914;48.178;11.716;2023-02-10T04:20:54;17.75;;;9.82;;
26163;SDS011;13914;48.178;11.716;2023-02-10T04:23:42;26.40;;;10.98;;
26163;SDS011;13914;48.178;11.716;2023-02-10T04:26:27;21.13;;;10.15;;
26163;SDS011;13914;48.178;11.716;2023-02-10T04:29:15;19.23;;;9.43;;
26163;SDS011;13914;48.178;11.716;2023-02-10T04:32:00;24.73;;;8.80;;
26163;SDS011;13914;48.178;11.716;2023-02-10T04:34:45;16.50;;;8.13;;
26163;SDS011;13914;48.178;11.716;2023-02-10T04:37:30;18.42;;;8.68;;
26163;SDS011;13914;48.178;11.716;2023-02-10T04:40:16;21.35;;;9.57;;
26163;SDS011;13914;48.178;11.716;2023-02-10T04:43:02;24.85;;;9.70;;
26163;SDS011;13914;48.178;11.716;2023-02-10T04:48:35;19.45;;;9.02;;
26163;SDS011;13914;48.178;11.716;2023-02-10T04:51:21;17.80;;;8.43;;
26163;SDS011;13914;48.178;11.716;2023-02-10T04:54:11;19.65;;;8.75;;
26163;SDS011;13914;48.178;11.716;2023-02-10T04:56:55;23.17;;;8.48;;
26163;SDS011;13914;48.178;11.716;2023-02-10T04:59:41;22.00;;;8.93;;
26163;SDS011;13914;48.178;11.716;2023-02-10T05:02:29;20.33;;;9.18;;
26163;SDS011;13914;48.178;11.716;2023-02-10T05:05:16;25.02;;;10.15;;
26163;SDS011;13914;48.178;11.716;2023-02-10T05:08:02;17.48;;;8.48;;
26163;SDS011;13914;48.178;11.716;2023-02-10T05:10:49;23.20;;;9.05;;
26163;SDS011;13914;48.178;11.716;2023-02-10T05:13:35;21.70;;;8.95;;
26163;SDS011;13914;48.178;11.716;2023-02-10T05:16:26;18.08;;;8.23;;
26163;SDS011;13914;48.178;11.716;2023-02-10T05:19:13;15.50;;;8.18;;
26163;SDS011;13914;48.178;11.716;2023-02-10T05:22:00;15.95;;;7.50;;
26163;SDS011;13914;48.178;11.716;2023-02-10T05:24:46;20.42;;;8.40;;
26163;SDS011;13914;48.178;11.716;2023-02-10T05:27:30;20.85;;;8.73;;
26163;SDS011;13914;48.178;11.716;2023-02-10T05:33:03;20.27;;;7.90;;
26163;SDS011;13914;48.178;11.716;2023-02-10T05:35:52;23.98;;;8.77;;
26163;SDS011;13914;48.178;11.716;2023-02-10T05:38:36;16.50;;;7.47;;
26163;SDS011;13914;48.178;11.716;2023-02-10T05:41:24;16.65;;;7.20;;
26163;SDS011;13914;48.178;11.716;2023-02-10T05:46:56;17.70;;;7.45;;
26163;SDS011;13914;48.178;11.716;2023-02-10T05:49:41;17.13;;;7.93;;
26163;SDS011;13914;48.178;11.716;2023-02-10T05:52:26;18.77;;;8.02;;
26163;SDS011;13914;48.178;11.716;2023-02-10T05:55:11;14.88;;;7.05;;
26163;SDS011;13914;48.178;11.716;2023-02-10T05:58:00;17.77;;;7.88;;
26163;SDS011;13914;48.178;11.716;2023-02-10T06:00:46;17.10;;;8.10;;
26163;SDS011;13914;48.178;11.716;2023-02-10T06:03:32;21.70;;;7.72;;
26163;SDS011;13914;48.178;11.716;2023-02-10T06:06:18;20.77;;;7.50;;
26163;SDS011;13914;48.178;11.716;2023-02-10T06:09:07;18.85;;;7.05;;
26163;SDS011;13914;48.178;11.716;2023-02-10T06:14:37;15.52;;;6.72;;
26163;SDS011;13914;48.178;11.716;2023-02-10T06:17:22;17.88;;;7.80;;
26163;SDS011;13914;48.178;11.716;2023-02-10T06:20:10;17.92;;;7.50;;
26163;SDS011;13914;48.178;11.716;2023-02-10T06:22:55;17.27;;;7.60;;
26163;SDS011;13914;48.178;11.716;2023-02-10T06:25:42;19.17;;;7.45;;
26163;SDS011;13914;48.178;11.716;2023-02-10T06:28:29;16.80;;;7.70;;
26163;SDS011;13914;48.178;11.716;2023-02-10T06:31:13;15.93;;;7.43;;
26163;SDS011;13914;48.178;11.716;2023-02-10T06:33:59;11.93;;;7.28;;
26163;SDS011;13914;48.178;11.716;2023-02-10T06:36:46;14.90;;;6.82;;
26163;SDS011;13914;48.178;11.716;2023-02-10T06:39:30;15.35;;;7.57;;
26163;SDS011;13914;48.178;11.716;2023-02-10T06:42:17;11.85;;;5.00;;
26163;SDS011;13914;48.178;11.716;2023-02-10T06:45:03;11.18;;;6.22;;
26163;SDS011;13914;48.178;11.716;2023-02-10T06:47:49;17.05;;;6.78;;
26163;SDS011;13914;48.178;11.716;2023-02-10T06:50:35;15.63;;;6.50;;
26163;SDS011;13914;48.178;11.716;2023-02-10T06:53:27;17.45;;;7.18;;
26163;SDS011;13914;48.178;11.716;2023-02-10T06:58:59;17.08;;;6.30;;
26163;SDS011;13914;48.178;11.716;2023-02-10T07:04:31;17.80;;;6.70;;
26163;SDS011;13914;48.178;11.716;2023-02-10T07:07:17;15.40;;;6.57;;
26163;SDS011;13914;48.178;11.716;2023-02-10T07:10:02;18.83;;;6.97;;
26163;SDS011;13914;48.178;11.716;2023-02-10T07:12:50;21.27;;;7.25;;
26163;SDS011;13914;48.178;11.716;2023-02-10T07:15:35;19.57;;;7.73;;
26163;SDS011;13914;48.178;11.716;2023-02-10T07:23:52;18.05;;;6.95;;
26163;SDS011;13914;48.178;11.716;2023-02-10T07:26:38;17.10;;;6.32;;
26163;SDS011;13914;48.178;11.716;2023-02-10T07:29:24;15.75;;;6.65;;
26163;SDS011;13914;48.178;11.716;2023-02-10T07:32:10;11.90;;;5.97;;
26163;SDS011;13914;48.178;11.716;2023-02-10T07:34:56;13.40;;;6.45;;
26163;SDS011;13914;48.178;11.716;2023-02-10T07:37:43;14.43;;;7.07;;
26163;SDS011;13914;48.178;11.716;2023-02-10T07:43:14;13.73;;;6.90;;
26163;SDS011;13914;48.178;11.716;2023-02-10T07:46:02;17.25;;;6.70;;
26163;SDS011;13914;48.178;11.716;2023-02-10T07:48:47;14.02;;;6.85;;
26163;SDS011;13914;48.178;11.716;2023-02-10T07:51:33;9.57;;;5.80;;
26163;SDS011;13914;48.178;11.716;2023-02-10T07:57:04;14.00;;;5.82;;
26163;SDS011;13914;48.178;11.716;2023-02-10T07:59:49;18.00;;;6.90;;
26163;SDS011;13914;48.178;11.716;2023-02-10T08:02:34;14.63;;;6.82;;
26163;SDS011;13914;48.178;11.716;2023-02-10T08:05:19;17.73;;;7.15;;
26163;SDS011;13914;48.178;11.716;2023-02-10T08:08:05;13.80;;;6.28;;
26163;SDS011;13914;48.178;11.716;2023-02-10T08:10:50;14.90;;;7.05;;
26163;SDS011;13914;48.178;11.716;2023-02-10T08:13:36;19.65;;;7.40;;
26163;SDS011;13914;48.178;11.716;2023-02-10T08:16:23;23.58;;;7.20;;
26163;SDS011;13914;48.178;11.716;2023-02-10T08:19:07;14.50;;;5.78;;
26163;SDS011;13914;48.178;11.716;2023-02-10T08:21:54;18.33;;;7.82;;
26163;SDS011;13914;48.178;11.716;2023-02-10T08:24:40;12.98;;;6.93;;
26163;SDS011;13914;48.178;11.716;2023-02-10T08:30:14;18.45;;;6.97;;
26163;SDS011;13914;48.178;11.716;2023-02-10T08:33:02;16.45;;;7.05;;
26163;SDS011;13914;48.178;11.716;2023-02-10T08:35:48;16.77;;;7.47;;
26163;SDS011;13914;48.178;11.716;2023-02-10T08:38:33;16.95;;;7.30;;
26163;SDS011;13914;48.178;11.716;2023-02-10T08:41:18;14.35;;;7.35;;
26163;SDS011;13914;48.178;11.716;2023-02-10T08:44:03;17.58;;;7.05;;
26163;SDS011;13914;48.178;11.716;2023-02-10T08:46:49;18.95;;;8.73;;
26163;SDS011;13914;48.178;11.716;2023-02-10T08:49:36;18.27;;;7.72;;
26163;SDS011;13914;48.178;11.716;2023-02-10T08:52:22;17.23;;;7.10;;
26163;SDS011;13914;48.178;11.716;2023-02-10T08:55:11;19.88;;;8.65;;
26163;SDS011;13914;48.178;11.716;2023-02-10T08:57:58;15.05;;;7.07;;
26163;SDS011;13914;48.178;11.716;2023-02-10T09:06:18;18.67;;;7.80;;
26163;SDS011;13914;48.178;11.716;2023-02-10T09:09:24;19.08;;;8.55;;
26163;SDS011;13914;48.178;11.716;2023-02-10T09:12:12;17.90;;;9.00;;
26163;SDS011;13914;48.178;11.716;2023-02-10T09:14:57;19.95;;;10.07;;
26163;SDS011;13914;48.178;11.716;2023-02-10T09:17:45;18.05;;;8.10;;
26163;SDS011;13914;48.178;11.716;2023-02-10T09:20:30;26.75;;;11.13;;
26163;SDS011;13914;48.178;11.716;2023-02-10T09:23:16;20.65;;;10.30;;
26163;SDS011;13914;48.178;11.716;2023-02-10T09:26:01;21.02;;;10.00;;
26163;SDS011;13914;48.178;11.716;2023-02-10T09:28:47;20.00;;;10.85;;
26163;SDS011;13914;48.178;11.716;2023-02-10T09:31:32;31.95;;;13.18;;
26163;SDS011;13914;48.178;11.716;2023-02-10T09:34:19;19.15;;;9.60;;
26163;SDS011;13914;48.178;11.716;2023-02-10T09:37:05;26.98;;;11.35;;
26163;SDS011;13914;48.178;11.716;2023-02-10T09:39:51;23.13;;;9.70;;
26163;SDS011;13914;48.178;11.716;2023-02-10T09:42:51;26.85;;;11.20;;
26163;SDS011;13914;48.178;11.716;2023-02-10T09:46:35;30.08;;;13.63;;
26163;SDS011;13914;48.178;11.716;2023-02-10T09:53:39;30.30;;;13.48;;
26163;SDS011;13914;48.178;11.716;2023-02-10T09:56:25;34.05;;;14.15;;
26163;SDS011;13914;48.178;11.716;2023-02-10T09:59:13;30.13;;;13.85;;
26163;SDS011;13914;48.178;11.716;2023-02-10T10:02:16;27.67;;;12.55;;
26163;SDS011;13914;48.178;11.716;2023-02-10T10:05:21;28.45;;;12.57;;
26163;SDS011;13914;48.178;11.716;2023-02-10T10:12:18;30.58;;;13.95;;
26163;SDS011;13914;48.178;11.716;2023-02-10T10:15:06;28.27;;;13.77;;
26163;SDS011;13914;48.178;11.716;2023-02-10T10:18:10;31.42;;;14.85;;
26163;SDS011;13914;48.178;11.716;2023-02-10T10:21:23;35.85;;;16.45;;
26163;SDS011;13914;48.178;11.716;2023-02-10T10:24:28;33.33;;;14.18;;
26163;SDS011;13914;48.178;11.716;2023-02-10T10:31:30;36.65;;;16.95;;
26163;SDS011;13914;48.178;11.716;2023-02-10T10:34:23;36.40;;;17.17;;
26163;SDS011;13914;48.178;11.716;2023-02-10T10:37:18;35.15;;;17.08;;
26163;SDS011;13914;48.178;11.716;2023-02-10T10:40:14;34.45;;;16.80;;
26163;SDS011;13914;48.178;11.716;2023-02-10T10:43:08;30.65;;;15.18;;
26163;SDS011;13914;48.178;11.716;2023-02-10T10:49:18;42.85;;;19.02;;
26163;SDS011;13914;48.178;11.716;2023-02-10T10:55:19;42.03;;;19.75;;
26163;SDS011;13914;48.178;11.716;2023-02-10T10:58:44;34.47;;;16.17;;
26163;SDS011;13914;48.178;11.716;2023-02-10T11:01:35;44.50;;;19.45;;
26163;SDS011;13914;48.178;11.716;2023-02-10T11:04:27;43.85;;;20.20;;
26163;SDS011;13914;48.178;11.716;2023-02-10T11:07:19;39.13;;;19.38;;
26163;SDS011;13914;48.178;11.716;2023-02-10T11:10:19;42.40;;;20.10;;
26163;SDS011;13914;48.178;11.716;2023-02-10T11:13:20;42.78;;;20.23;;
26163;SDS011;13914;48.178;11.716;2023-02-10T11:16:12;33.67;;;15.82;;
26163;SDS011;13914;48.178;11.716;2023-02-10T11:19:10;40.67;;;19.10;;
26163;SDS011;13914;48.178;11.716;2023-02-10T11:22:15;42.85;;;20.65;;
26163;SDS011;13914;48.178;11.716;2023-02-10T11:28:16;42.95;;;21.50;;
26163;SDS011;13914;48.178;11.716;2023-02-10T11:31:41;42.72;;;20.63;;
26163;SDS011;13914;48.178;11.716;2023-02-10T11:34:33;40.42;;;20.50;;
26163;SDS011;13914;48.178;11.716;2023-02-10T11:37:37;42.42;;;21.35;;
26163;SDS011;13914;48.178;11.716;2023-02-10T11:40:29;37.80;;;15.87;;
26163;SDS011;13914;48.178;11.716;2023-02-10T11:43:31;38.75;;;20.30;;
26163;SDS011;13914;48.178;11.716;2023-02-10T11:46:30;37.08;;;20.55;;
26163;SDS011;13914;48.178;11.716;2023-02-10T11:49:17;41.40;;;21.23;;
26163;SDS011;13914;48.178;11.716;2023-02-10T11:52:05;37.63;;;21.35;;
26163;SDS011;13914;48.178;11.716;2023-02-10T11:54:53;37.33;;;20.80;;
26163;SDS011;13914;48.178;11.716;2023-02-10T11:57:55;42.05;;;21.33;;
26163;SDS011;13914;48.178;11.716;2023-02-10T12:15:51;41.85;;;21.38;;
26163;SDS011;13914;48.178;11.716;2023-02-10T12:18:59;43.38;;;20.90;;
26163;SDS011;13914;48.178;11.716;2023-02-10T12:25:55;40.10;;;20.80;;
26163;SDS011;13914;48.178;11.716;2023-02-10T12:29:40;35.17;;;18.95;;
26163;SDS011;13914;48.178;11.716;2023-02-10T12:34:02;36.03;;;19.45;;
26163;SDS011;13914;48.178;11.716;2023-02-10T12:44:34;35.28;;;17.88;;
26163;SDS011;13914;48.178;11.716;2023-02-10T12:54:39;34.83;;;17.17;;
26163;SDS011;13914;48.178;11.716;2023-02-10T12:58:12;29.02;;;15.43;;
26163;SDS011;13914;48.178;11.716;2023-02-10T13:04:49;29.63;;;15.48;;
26163;SDS011;13914;48.178;11.716;2023-02-10T13:07:59;29.92;;;15.25;;
26163;SDS011;13914;48.178;11.716;2023-02-10T13:10:50;36.28;;;15.82;;
26163;SDS011;13914;48.178;11.716;2023-02-10T13:13:42;33.25;;;15.38;;
26163;SDS011;13914;48.178;11.716;2023-02-10T13:16:30;29.92;;;16.65;;
26163;SDS011;13914;48.178;11.716;2023-02-10T13:19:23;33.92;;;18.10;;
26163;SDS011;13914;48.178;11.716;2023-02-10T13:36:28;31.13;;;17.10;;
26163;SDS011;13914;48.178;11.716;2023-02-10T13:39:21;32.78;;;16.92;;
26163;SDS011;13914;48.178;11.716;2023-02-10T13:42:18;36.72;;;17.55;;
26163;SDS011;13914;48.178;11.716;2023-02-10T13:45:23;32.70;;;17.00;;
26163;SDS011;13914;48.178;11.716;2023-02-10T13:48:42;37.72;;;17.73;;
26163;SDS011;13914;48.178;11.716;2023-02-10T13:51:29;29.08;;;16.90;;
26163;SDS011;13914;48.178;11.716;2023-02-10T13:54:26;33.67;;;17.27;;
26163;SDS011;13914;48.178;11.716;2023-02-10T13:57:33;33.13;;;17.30;;
26163;SDS011;13914;48.178;11.716;2023-02-10T14:00:25;34.35;;;18.05;;
26163;SDS011;13914;48.178;11.716;2023-02-10T14:06:12;28.40;;;15.25;;
26163;SDS011;13914;48.178;11.716;2023-02-10T14:09:01;30.48;;;14.93;;
26163;SDS011;13914;48.178;11.716;2023-02-10T14:11:51;26.08;;;14.85;;
26163;SDS011;13914;48.178;11.716;2023-02-10T14:14:36;30.63;;;16.08;;
26163;SDS011;13914;48.178;11.716;2023-02-10T14:17:25;28.17;;;15.35;;
26163;SDS011;13914;48.178;11.716;2023-02-10T14:20:20;30.52;;;15.50;;
26163;SDS011;13914;48.178;11.716;2023-02-10T14:23:18;30.40;;;16.63;;
26163;SDS011;13914;48.178;11.716;2023-02-10T14:26:22;34.67;;;16.80;;
26163;SDS011;13914;48.178;11.716;2023-02-10T14:29:19;36.05;;;17.25;;
26163;SDS011;13914;48.178;11.716;2023-02-10T14:32:32;27.35;;;15.13;;
26163;SDS011;13914;48.178;11.716;2023-02-10T14:35:28;29.80;;;15.75;;
26163;SDS011;13914;48.178;11.716;2023-02-10T14:38:26;26.88;;;15.65;;
26163;SDS011;13914;48.178;11.716;2023-02-10T14:41:15;31.00;;;15.82;;
26163;SDS011;13914;48.178;11.716;2023-02-10T14:44:04;24.83;;;14.80;;
26163;SDS011;13914;48.178;11.716;2023-02-10T14:46:50;29.80;;;15.55;;
26163;SDS011;13914;48.178;11.716;2023-02-10T14:49:35;29.33;;;16.38;;
26163;SDS011;13914;48.178;11.716;2023-02-10T14:52:34;28.58;;;16.60;;
26163;SDS011;13914;48.178;11.716;2023-02-10T14:55:22;31.85;;;16.20;;
26163;SDS011;13914;48.178;11.716;2023-02-10T14:58:25;30.65;;;16.08;;
26163;SDS011;13914;48.178;11.716;2023-02-10T15:04:18;33.55;;;15.95;;
26163;SDS011;13914;48.178;11.716;2023-02-10T15:07:12;30.08;;;17.02;;
26163;SDS011;13914;48.178;11.716;2023-02-10T15:10:29;31.60;;;16.33;;
26163;SDS011;13914;48.178;11.716;2023-02-10T15:13:42;35.42;;;17.27;;
26163;SDS011;13914;48.178;11.716;2023-02-10T15:16:30;30.63;;;16.45;;
26163;SDS011;13914;48.178;11.716;2023-02-10T15:22:02;30.17;;;16.20;;
26163;SDS011;13914;48.178;11.716;2023-02-10T15:25:34;32.92;;;17.05;;
26163;SDS011;13914;48.178;11.716;2023-02-10T15:28:23;29.27;;;14.60;;
26163;SDS011;13914;48.178;11.716;2023-02-10T15:31:26;35.22;;;16.17;;
26163;SDS011;13914;48.178;11.716;2023-02-10T15:34:22;29.52;;;16.27;;
26163;SDS011;13914;48.178;11.716;2023-02-10T15:37:18;28.73;;;15.75;;
26163;SDS011;13914;48.178;11.716;2023-02-10T15:40:21;23.58;;;12.95;;
26163;SDS011;13914;48.178;11.716;2023-02-10T15:43:30;35.42;;;16.42;;
26163;SDS011;13914;48.178;11.716;2023-02-10T15:46:16;32.58;;;16.27;;
26163;SDS011;13914;48.178;11.716;2023-02-10T15:49:07;29.15;;;15.40;;
26163;SDS011;13914;48.178;11.716;2023-02-10T15:51:57;30.80;;;15.98;;
26163;SDS011;13914;48.178;11.716;2023-02-10T15:54:43;32.55;;;16.35;;
26163;SDS011;13914;48.178;11.716;2023-02-10T15:57:29;36.22;;;14.80;;
26163;SDS011;13914;48.178;11.716;2023-02-10T16:03:10;30.63;;;16.50;;
26163;SDS011;13914;48.178;11.716;2023-02-10T16:05:59;32.20;;;16.77;;
26163;SDS011;13914;48.178;11.716;2023-02-10T16:08:47;33.05;;;17.30;;
26163;SDS011;13914;48.178;11.716;2023-02-10T16:11:33;31.10;;;17.67;;
26163;SDS011;13914;48.178;11.716;2023-02-10T16:14:28;36.40;;;16.33;;
26163;SDS011;13914;48.178;11.716;2023-02-10T16:17:21;35.15;;;16.92;;
26163;SDS011;13914;48.178;11.716;2023-02-10T16:20:22;31.45;;;17.92;;
26163;SDS011;13914;48.178;11.716;2023-02-10T16:23:15;33.03;;;17.23;;
26163;SDS011;13914;48.178;11.716;2023-02-10T16:26:03;31.92;;;16.70;;
26163;SDS011;13914;48.178;11.716;2023-02-10T16:28:49;32.67;;;15.63;;
26163;SDS011;13914;48.178;11.716;2023-02-10T16:31:35;33.55;;;17.92;;
26163;SDS011;13914;48.178;11.716;2023-02-10T16:34:22;31.15;;;16.17;;
26163;SDS011;13914;48.178;11.716;2023-02-10T16:37:12;29.67;;;16.70;;
26163;SDS011;13914;48.178;11.716;2023-02-10T16:40:04;31.77;;;16.38;;
26163;SDS011;13914;48.178;11.716;2023-02-10T16:42:57;31.15;;;15.85;;
26163;SDS011;13914;48.178;11.716;2023-02-10T16:45:43;26.80;;;14.90;;
26163;SDS011;13914;48.178;11.716;2023-02-10T16:48:29;27.80;;;15.02;;
26163;SDS011;13914;48.178;11.716;2023-02-10T16:51:17;30.33;;;16.35;;
26163;SDS011;13914;48.178;11.716;2023-02-10T16:54:02;30.85;;;15.73;;
26163;SDS011;13914;48.178;11.716;2023-02-10T16:56:53;30.38;;;16.27;;
26163;SDS011;13914;48.178;11.716;2023-02-10T16:59:39;28.63;;;14.98;;
26163;SDS011;13914;48.178;11.716;2023-02-10T17:02:27;31.25;;;16.67;;
26163;SDS011;13914;48.178;11.716;2023-02-10T17:05:14;31.23;;;15.85;;
26163;SDS011;13914;48.178;11.716;2023-02-10T17:08:03;27.23;;;15.65;;
26163;SDS011;13914;48.178;11.716;2023-02-10T17:10:49;29.33;;;14.80;;
26163;SDS011;13914;48.178;11.716;2023-02-10T17:13:39;33.17;;;16.75;;
26163;SDS011;13914;48.178;11.716;2023-02-10T17:16:30;32.63;;;15.38;;
26163;SDS011;13914;48.178;11.716;2023-02-10T17:19:21;32.65;;;15.65;;
26163;SDS011;13914;48.178;11.716;2023-02-10T17:22:16;22.00;;;11.50;;
26163;SDS011;13914;48.178;11.716;2023-02-10T17:25:00;28.30;;;16.40;;
26163;SDS011;13914;48.178;11.716;2023-02-10T17:27:47;30.50;;;15.65;;
26163;SDS011;13914;48.178;11.716;2023-02-10T17:30:36;32.08;;;15.73;;
26163;SDS011;13914;48.178;11.716;2023-02-10T17:33:25;30.52;;;15.90;;
26163;SDS011;13914;48.178;11.716;2023-02-10T17:36:12;31.85;;;16.40;;
26163;SDS011;13914;48.178;11.716;2023-02-10T17:38:58;33.55;;;16.35;;
26163;SDS011;13914;48.178;11.716;2023-02-10T17:41:47;32.55;;;16.27;;
26163;SDS011;13914;48.178;11.716;2023-02-10T17:44:35;32.40;;;17.50;;
26163;SDS011;13914;48.178;11.716;2023-02-10T17:50:06;32.58;;;16.58;;
26163;SDS011;13914;48.178;11.716;2023-02-10T17:52:53;35.95;;;16.65;;
26163;SDS011;13914;48.178;11.716;2023-02-10T17:55:41;31.27;;;16.23;;
26163;SDS011;13914;48.178;11.716;2023-02-10T17:58:27;32.22;;;16.88;;
26163;SDS011;13914;48.178;11.716;2023-02-10T18:01:20;32.65;;;15.63;;
26163;SDS011;13914;48.178;11.716;2023-02-10T18:06:58;31.40;;;15.93;;
26163;SDS011;13914;48.178;11.716;2023-02-10T18:09:44;35.40;;;16.20;;
26163;SDS011;13914;48.178;11.716;2023-02-10T18:12:30;41.10;;;18.13;;
26163;SDS011;13914;48.178;11.716;2023-02-10T18:15:15;31.40;;;16.10;;
26163;SDS011;13914;48.178;11.716;2023-02-10T18:18:02;33.05;;;16.65;;
26163;SDS011;13914;48.178;11.716;2023-02-10T18:20:49;33.83;;;16.35;;
26163;SDS011;13914;48.178;11.716;2023-02-10T18:23:35;33.38;;;17.88;;
26163;SDS011;13914;48.178;11.716;2023-02-10T18:26:21;36.08;;;17.65;;
26163;SDS011;13914;48.178;11.716;2023-02-10T18:29:07;35.00;;;16.83;;
26163;SDS011;13914;48.178;11.716;2023-02-10T18:31:54;41.20;;;16.77;;
26163;SDS011;13914;48.178;11.716;2023-02-10T18:34:40;33.00;;;17.05;;
26163;SDS011;13914;48.178;11.716;2023-02-10T18:37:26;30.63;;;15.73;;
26163;SDS011;13914;48.178;11.716;2023-02-10T18:44:01;33.25;;;15.98;;
26163;SDS011;13914;48.178;11.716;2023-02-10T18:46:47;43.30;;;19.20;;
26163;SDS011;13914;48.178;11.716;2023-02-10T18:49:36;36.60;;;17.45;;
26163;SDS011;13914;48.178;11.716;2023-02-10T18:52:22;53.17;;;24.25;;
26163;SDS011;13914;48.178;11.716;2023-02-10T18:55:12;36.33;;;17.33;;
26163;SDS011;13914;48.178;11.716;2023-02-10T18:58:15;43.75;;;21.40;;
26163;SDS011;13914;48.178;11.716;2023-02-10T19:01:07;45.42;;;20.00;;
26163;SDS011;13914;48.178;11.716;2023-02-10T19:04:17;40.22;;;19.50;;
26163;SDS011;13914;48.178;11.716;2023-02-10T19:07:10;63.95;;;28.60;;
26163;SDS011;13914;48.178;11.716;2023-02-10T19:09:56;41.63;;;20.13;;
26163;SDS011;13914;48.178;11.716;2023-02-10T19:12:41;43.30;;;19.17;;
26163;SDS011;13914;48.178;11.716;2023-02-10T19:15:25;46.40;;;21.38;;
26163;SDS011;13914;48.178;11.716;2023-02-10T19:18:11;50.67;;;21.63;;
26163;SDS011;13914;48.178;11.716;2023-02-10T19:20:57;46.58;;;19.98;;
26163;SDS011;13914;48.178;11.716;2023-02-10T19:26:28;47.08;;;23.30;;